sensor_id;sensor_type;location;lat;lon;timestamp;P1;durP1;ratioP1;P2;durP2;ratioP2
62927;SDS011;51070;52.236;-0.892;2023-07-08T00:00:19;7.60;;;3.60;;
62927;SDS011;51070;52.236;-0.892;2023-07-08T00:02:45;4.20;;;3.20;;
62927;SDS011;51070;52.236;-0.892;2023-07-08T00:05:12;4.30;;;3.20;;
62927;SDS011;51070;52.236;-0.892;2023-07-08T00:07:39;5.40;;;3.60;;
62927;SDS011;51070;52.236;-0.892;2023-07-08T00:10:10;5.00;;;3.70;;
62927;SDS011;51070;52.236;-0.892;2023-07-08T00:12:37;6.60;;;3.40;;
62927;SDS011;51070;52.236;-0.892;2023-07-08T00:15:02;4.80;;;3.20;;
62927;SDS011;51070;52.236;-0.892;2023-07-08T00:17:28;6.40;;;3.70;;
62927;SDS011;51070;52.236;-0.892;2023-07-08T00:19:53;4.70;;;3.30;;
62927;SDS011;51070;52.236;-0.892;2023-07-08T00:22:20;4.20;;;2.90;;
62927;SDS011;51070;52.236;-0.892;2023-07-08T00:24:45;5.30;;;3.50;;
62927;SDS011;51070;52.236;-0.892;2023-07-08T00:27:11;7.90;;;4.00;;
62927;SDS011;51070;52.236;-0.892;2023-07-08T00:29:38;5.80;;;3.70;;
62927;SDS011;51070;52.236;-0.892;2023-07-08T00:32:11;6.90;;;3.30;;
62927;SDS011;51070;52.236;-0.892;2023-07-08T00:34:38;5.30;;;3.30;;
62927;SDS011;51070;52.236;-0.892;2023-07-08T00:37:03;6.00;;;3.30;;
62927;SDS011;51070;52.236;-0.892;2023-07-08T00:39:33;6.60;;;3.60;;
62927;SDS011;51070;52.236;-0.892;2023-07-08T00:41:59;5.20;;;3.10;;
62927;SDS011;51070;52.236;-0.892;2023-07-08T00:44:26;5.60;;;3.50;;
62927;SDS011;51070;52.236;-0.892;2023-07-08T00:49:50;4.30;;;3.00;;
62927;SDS011;51070;52.236;-0.892;2023-07-08T00:52:25;4.80;;;3.20;;
62927;SDS011;51070;52.236;-0.892;2023-07-08T00:54:53;6.40;;;3.00;;
62927;SDS011;51070;52.236;-0.892;2023-07-08T00:57:30;5.20;;;3.60;;
62927;SDS011;51070;52.236;-0.892;2023-07-08T01:00:03;6.90;;;3.50;;
62927;SDS011;51070;52.236;-0.892;2023-07-08T01:02:29;5.30;;;3.30;;
62927;SDS011;51070;52.236;-0.892;2023-07-08T01:05:04;6.20;;;3.30;;
62927;SDS011;51070;52.236;-0.892;2023-07-08T01:07:36;4.60;;;3.20;;
62927;SDS011;51070;52.236;-0.892;2023-07-08T01:10:05;4.90;;;3.20;;
62927;SDS011;51070;52.236;-0.892;2023-07-08T01:12:38;14.40;;;4.20;;
62927;SDS011;51070;52.236;-0.892;2023-07-08T01:15:08;5.10;;;3.20;;
62927;SDS011;51070;52.236;-0.892;2023-07-08T01:17:35;7.20;;;3.80;;
62927;SDS011;51070;52.236;-0.892;2023-07-08T01:20:01;4.30;;;3.40;;
62927;SDS011;51070;52.236;-0.892;2023-07-08T01:22:34;8.00;;;3.50;;
62927;SDS011;51070;52.236;-0.892;2023-07-08T01:25:01;6.70;;;3.70;;
62927;SDS011;51070;52.236;-0.892;2023-07-08T01:27:30;5.90;;;3.10;;
62927;SDS011;51070;52.236;-0.892;2023-07-08T01:29:59;5.50;;;3.20;;
62927;SDS011;51070;52.236;-0.892;2023-07-08T01:32:26;8.10;;;3.60;;
62927;SDS011;51070;52.236;-0.892;2023-07-08T01:34:52;6.80;;;3.60;;
62927;SDS011;51070;52.236;-0.892;2023-07-08T01:37:36;3.40;;;2.80;;
62927;SDS011;51070;52.236;-0.892;2023-07-08T01:40:19;5.40;;;3.20;;
62927;SDS011;51070;52.236;-0.892;2023-07-08T01:42:50;5.40;;;3.30;;
62927;SDS011;51070;52.236;-0.892;2023-07-08T01:45:17;6.00;;;3.40;;
62927;SDS011;51070;52.236;-0.892;2023-07-08T01:47:46;5.20;;;3.50;;
62927;SDS011;51070;52.236;-0.892;2023-07-08T01:50:21;6.20;;;3.50;;
62927;SDS011;51070;52.236;-0.892;2023-07-08T01:52:50;7.80;;;3.50;;
62927;SDS011;51070;52.236;-0.892;2023-07-08T01:55:23;6.20;;;3.90;;
62927;SDS011;51070;52.236;-0.892;2023-07-08T01:57:53;4.40;;;3.10;;
62927;SDS011;51070;52.236;-0.892;2023-07-08T02:00:19;6.90;;;3.40;;
62927;SDS011;51070;52.236;-0.892;2023-07-08T02:02:45;5.20;;;3.60;;
62927;SDS011;51070;52.236;-0.892;2023-07-08T02:05:11;7.30;;;3.70;;
62927;SDS011;51070;52.236;-0.892;2023-07-08T02:07:37;5.70;;;3.60;;
62927;SDS011;51070;52.236;-0.892;2023-07-08T02:10:02;7.60;;;4.00;;
62927;SDS011;51070;52.236;-0.892;2023-07-08T02:12:27;7.10;;;4.30;;
62927;SDS011;51070;52.236;-0.892;2023-07-08T02:14:53;6.10;;;3.40;;
62927;SDS011;51070;52.236;-0.892;2023-07-08T02:17:18;7.30;;;4.30;;
62927;SDS011;51070;52.236;-0.892;2023-07-08T02:19:44;5.50;;;4.00;;
62927;SDS011;51070;52.236;-0.892;2023-07-08T02:22:09;9.30;;;4.70;;
62927;SDS011;51070;52.236;-0.892;2023-07-08T02:24:35;6.60;;;3.80;;
62927;SDS011;51070;52.236;-0.892;2023-07-08T02:27:01;4.70;;;3.40;;
62927;SDS011;51070;52.236;-0.892;2023-07-08T02:29:26;3.90;;;3.30;;
62927;SDS011;51070;52.236;-0.892;2023-07-08T02:31:52;5.90;;;3.70;;
62927;SDS011;51070;52.236;-0.892;2023-07-08T02:34:17;5.70;;;4.00;;
62927;SDS011;51070;52.236;-0.892;2023-07-08T02:36:43;5.80;;;4.10;;
62927;SDS011;51070;52.236;-0.892;2023-07-08T02:39:10;5.90;;;3.80;;
62927;SDS011;51070;52.236;-0.892;2023-07-08T02:41:36;4.50;;;3.60;;
62927;SDS011;51070;52.236;-0.892;2023-07-08T02:44:02;6.90;;;4.00;;
62927;SDS011;51070;52.236;-0.892;2023-07-08T02:46:27;8.00;;;3.70;;
62927;SDS011;51070;52.236;-0.892;2023-07-08T02:48:53;4.80;;;3.80;;
62927;SDS011;51070;52.236;-0.892;2023-07-08T02:51:18;6.40;;;3.90;;
62927;SDS011;51070;52.236;-0.892;2023-07-08T02:53:43;8.20;;;4.60;;
62927;SDS011;51070;52.236;-0.892;2023-07-08T02:56:09;9.40;;;4.50;;
62927;SDS011;51070;52.236;-0.892;2023-07-08T02:58:34;9.30;;;4.40;;
62927;SDS011;51070;52.236;-0.892;2023-07-08T03:01:01;5.80;;;3.90;;
62927;SDS011;51070;52.236;-0.892;2023-07-08T03:03:27;8.00;;;4.50;;
62927;SDS011;51070;52.236;-0.892;2023-07-08T03:05:56;6.90;;;4.20;;
62927;SDS011;51070;52.236;-0.892;2023-07-08T03:08:24;5.60;;;3.70;;
62927;SDS011;51070;52.236;-0.892;2023-07-08T03:10:54;7.90;;;4.10;;
62927;SDS011;51070;52.236;-0.892;2023-07-08T03:13:24;6.00;;;3.90;;
62927;SDS011;51070;52.236;-0.892;2023-07-08T03:15:50;11.50;;;4.50;;
62927;SDS011;51070;52.236;-0.892;2023-07-08T03:18:16;5.40;;;4.30;;
62927;SDS011;51070;52.236;-0.892;2023-07-08T03:20:42;9.50;;;4.60;;
62927;SDS011;51070;52.236;-0.892;2023-07-08T03:23:11;5.40;;;3.90;;
62927;SDS011;51070;52.236;-0.892;2023-07-08T03:25:37;8.00;;;4.30;;
62927;SDS011;51070;52.236;-0.892;2023-07-08T03:28:03;9.10;;;4.40;;
62927;SDS011;51070;52.236;-0.892;2023-07-08T03:30:39;7.50;;;3.70;;
62927;SDS011;51070;52.236;-0.892;2023-07-08T03:33:05;8.20;;;4.50;;
62927;SDS011;51070;52.236;-0.892;2023-07-08T03:35:30;5.40;;;4.20;;
62927;SDS011;51070;52.236;-0.892;2023-07-08T03:37:56;7.20;;;4.70;;
62927;SDS011;51070;52.236;-0.892;2023-07-08T03:40:21;6.50;;;4.30;;
62927;SDS011;51070;52.236;-0.892;2023-07-08T03:42:47;7.70;;;4.10;;
62927;SDS011;51070;52.236;-0.892;2023-07-08T03:45:12;8.70;;;4.40;;
62927;SDS011;51070;52.236;-0.892;2023-07-08T03:47:38;8.30;;;5.00;;
62927;SDS011;51070;52.236;-0.892;2023-07-08T03:50:03;6.20;;;4.50;;
62927;SDS011;51070;52.236;-0.892;2023-07-08T03:52:29;6.60;;;4.00;;
62927;SDS011;51070;52.236;-0.892;2023-07-08T03:54:55;8.50;;;4.60;;
62927;SDS011;51070;52.236;-0.892;2023-07-08T03:57:21;7.20;;;3.70;;
62927;SDS011;51070;52.236;-0.892;2023-07-08T03:59:46;7.80;;;4.50;;
62927;SDS011;51070;52.236;-0.892;2023-07-08T04:02:12;7.20;;;4.10;;
62927;SDS011;51070;52.236;-0.892;2023-07-08T04:04:37;8.00;;;4.50;;
62927;SDS011;51070;52.236;-0.892;2023-07-08T04:07:06;6.20;;;4.70;;
62927;SDS011;51070;52.236;-0.892;2023-07-08T04:09:32;6.00;;;4.20;;
62927;SDS011;51070;52.236;-0.892;2023-07-08T04:11:57;7.60;;;4.40;;
62927;SDS011;51070;52.236;-0.892;2023-07-08T04:14:24;5.50;;;4.10;;
62927;SDS011;51070;52.236;-0.892;2023-07-08T04:16:51;9.20;;;4.30;;
62927;SDS011;51070;52.236;-0.892;2023-07-08T04:19:23;8.00;;;4.50;;
62927;SDS011;51070;52.236;-0.892;2023-07-08T04:21:49;6.00;;;3.90;;
62927;SDS011;51070;52.236;-0.892;2023-07-08T04:24:16;11.60;;;4.50;;
62927;SDS011;51070;52.236;-0.892;2023-07-08T04:26:42;10.30;;;4.30;;
62927;SDS011;51070;52.236;-0.892;2023-07-08T04:29:17;7.40;;;4.20;;
62927;SDS011;51070;52.236;-0.892;2023-07-08T04:31:45;7.30;;;4.40;;
62927;SDS011;51070;52.236;-0.892;2023-07-08T04:34:13;7.60;;;4.70;;
62927;SDS011;51070;52.236;-0.892;2023-07-08T04:36:39;6.30;;;4.20;;
62927;SDS011;51070;52.236;-0.892;2023-07-08T04:39:05;10.00;;;4.50;;
62927;SDS011;51070;52.236;-0.892;2023-07-08T04:41:32;7.40;;;4.80;;
62927;SDS011;51070;52.236;-0.892;2023-07-08T04:43:58;8.80;;;4.50;;
62927;SDS011;51070;52.236;-0.892;2023-07-08T04:46:35;8.70;;;4.80;;
62927;SDS011;51070;52.236;-0.892;2023-07-08T04:49:05;9.50;;;4.60;;
62927;SDS011;51070;52.236;-0.892;2023-07-08T04:51:34;8.80;;;4.00;;
62927;SDS011;51070;52.236;-0.892;2023-07-08T04:54:00;5.90;;;4.30;;
62927;SDS011;51070;52.236;-0.892;2023-07-08T04:56:34;7.30;;;4.10;;
62927;SDS011;51070;52.236;-0.892;2023-07-08T04:59:04;9.80;;;4.90;;
62927;SDS011;51070;52.236;-0.892;2023-07-08T05:01:32;6.70;;;4.20;;
62927;SDS011;51070;52.236;-0.892;2023-07-08T05:03:58;14.80;;;5.20;;
62927;SDS011;51070;52.236;-0.892;2023-07-08T05:06:24;7.10;;;4.70;;
62927;SDS011;51070;52.236;-0.892;2023-07-08T05:08:50;10.10;;;4.60;;
62927;SDS011;51070;52.236;-0.892;2023-07-08T05:11:15;6.60;;;4.10;;
62927;SDS011;51070;52.236;-0.892;2023-07-08T05:13:41;9.20;;;4.20;;
62927;SDS011;51070;52.236;-0.892;2023-07-08T05:16:06;11.00;;;4.80;;
62927;SDS011;51070;52.236;-0.892;2023-07-08T05:18:32;5.40;;;3.60;;
62927;SDS011;51070;52.236;-0.892;2023-07-08T05:20:57;6.50;;;4.20;;
62927;SDS011;51070;52.236;-0.892;2023-07-08T05:23:22;8.30;;;3.90;;
62927;SDS011;51070;52.236;-0.892;2023-07-08T05:25:49;5.90;;;3.70;;
62927;SDS011;51070;52.236;-0.892;2023-07-08T05:28:14;4.90;;;3.60;;
62927;SDS011;51070;52.236;-0.892;2023-07-08T05:30:40;4.70;;;4.10;;
62927;SDS011;51070;52.236;-0.892;2023-07-08T05:33:07;6.20;;;4.10;;
62927;SDS011;51070;52.236;-0.892;2023-07-08T05:35:33;8.20;;;4.40;;
62927;SDS011;51070;52.236;-0.892;2023-07-08T05:37:58;7.90;;;4.10;;
62927;SDS011;51070;52.236;-0.892;2023-07-08T05:40:24;7.80;;;3.60;;
62927;SDS011;51070;52.236;-0.892;2023-07-08T05:42:49;6.90;;;4.10;;
62927;SDS011;51070;52.236;-0.892;2023-07-08T05:45:15;6.80;;;3.60;;
62927;SDS011;51070;52.236;-0.892;2023-07-08T05:47:40;8.30;;;4.20;;
62927;SDS011;51070;52.236;-0.892;2023-07-08T05:50:06;5.80;;;3.30;;
62927;SDS011;51070;52.236;-0.892;2023-07-08T05:52:33;6.20;;;4.20;;
62927;SDS011;51070;52.236;-0.892;2023-07-08T05:54:58;8.50;;;4.30;;
62927;SDS011;51070;52.236;-0.892;2023-07-08T05:57:24;6.10;;;4.30;;
62927;SDS011;51070;52.236;-0.892;2023-07-08T05:59:49;8.00;;;4.40;;
62927;SDS011;51070;52.236;-0.892;2023-07-08T06:02:16;5.30;;;3.60;;
62927;SDS011;51070;52.236;-0.892;2023-07-08T06:04:42;7.30;;;4.20;;
62927;SDS011;51070;52.236;-0.892;2023-07-08T06:07:08;6.40;;;3.90;;
62927;SDS011;51070;52.236;-0.892;2023-07-08T06:09:33;6.90;;;4.30;;
62927;SDS011;51070;52.236;-0.892;2023-07-08T06:11:59;5.80;;;3.50;;
62927;SDS011;51070;52.236;-0.892;2023-07-08T06:14:25;10.30;;;4.50;;
62927;SDS011;51070;52.236;-0.892;2023-07-08T06:16:50;6.90;;;4.30;;
62927;SDS011;51070;52.236;-0.892;2023-07-08T06:19:16;6.10;;;4.10;;
62927;SDS011;51070;52.236;-0.892;2023-07-08T06:21:42;6.00;;;4.20;;
62927;SDS011;51070;52.236;-0.892;2023-07-08T06:24:08;6.80;;;4.20;;
62927;SDS011;51070;52.236;-0.892;2023-07-08T06:26:34;6.30;;;4.00;;
62927;SDS011;51070;52.236;-0.892;2023-07-08T06:29:00;5.70;;;3.70;;
62927;SDS011;51070;52.236;-0.892;2023-07-08T06:31:25;4.70;;;3.60;;
62927;SDS011;51070;52.236;-0.892;2023-07-08T06:33:50;6.20;;;4.00;;
62927;SDS011;51070;52.236;-0.892;2023-07-08T06:36:16;8.20;;;4.60;;
62927;SDS011;51070;52.236;-0.892;2023-07-08T06:38:41;6.70;;;4.10;;
62927;SDS011;51070;52.236;-0.892;2023-07-08T06:41:07;4.20;;;3.50;;
62927;SDS011;51070;52.236;-0.892;2023-07-08T06:43:32;4.60;;;3.70;;
62927;SDS011;51070;52.236;-0.892;2023-07-08T06:45:57;9.00;;;4.00;;
62927;SDS011;51070;52.236;-0.892;2023-07-08T06:48:23;5.40;;;4.20;;
62927;SDS011;51070;52.236;-0.892;2023-07-08T06:50:49;6.40;;;3.90;;
62927;SDS011;51070;52.236;-0.892;2023-07-08T06:53:15;5.70;;;4.00;;
62927;SDS011;51070;52.236;-0.892;2023-07-08T06:55:40;4.90;;;3.40;;
62927;SDS011;51070;52.236;-0.892;2023-07-08T06:58:06;5.70;;;4.50;;
62927;SDS011;51070;52.236;-0.892;2023-07-08T07:00:31;4.90;;;3.90;;
62927;SDS011;51070;52.236;-0.892;2023-07-08T07:02:57;8.10;;;4.20;;
62927;SDS011;51070;52.236;-0.892;2023-07-08T07:05:22;4.10;;;3.80;;
62927;SDS011;51070;52.236;-0.892;2023-07-08T07:07:47;4.90;;;3.30;;
62927;SDS011;51070;52.236;-0.892;2023-07-08T07:10:13;4.50;;;3.60;;
62927;SDS011;51070;52.236;-0.892;2023-07-08T07:12:38;6.10;;;3.90;;
62927;SDS011;51070;52.236;-0.892;2023-07-08T07:15:04;4.70;;;3.60;;
62927;SDS011;51070;52.236;-0.892;2023-07-08T07:17:30;6.90;;;4.10;;
62927;SDS011;51070;52.236;-0.892;2023-07-08T07:19:56;7.70;;;4.00;;
62927;SDS011;51070;52.236;-0.892;2023-07-08T07:22:21;6.20;;;4.10;;
62927;SDS011;51070;52.236;-0.892;2023-07-08T07:24:47;5.50;;;3.90;;
62927;SDS011;51070;52.236;-0.892;2023-07-08T07:27:13;6.60;;;4.10;;
62927;SDS011;51070;52.236;-0.892;2023-07-08T07:29:40;6.10;;;3.90;;
62927;SDS011;51070;52.236;-0.892;2023-07-08T07:32:09;7.40;;;4.10;;
62927;SDS011;51070;52.236;-0.892;2023-07-08T07:34:35;6.30;;;4.60;;
62927;SDS011;51070;52.236;-0.892;2023-07-08T07:37:01;4.20;;;3.60;;
62927;SDS011;51070;52.236;-0.892;2023-07-08T07:39:26;6.50;;;4.00;;
62927;SDS011;51070;52.236;-0.892;2023-07-08T07:41:53;7.20;;;4.00;;
62927;SDS011;51070;52.236;-0.892;2023-07-08T07:44:19;8.50;;;4.40;;
62927;SDS011;51070;52.236;-0.892;2023-07-08T07:46:44;7.10;;;4.70;;
62927;SDS011;51070;52.236;-0.892;2023-07-08T07:49:11;5.60;;;4.00;;
62927;SDS011;51070;52.236;-0.892;2023-07-08T07:51:36;5.30;;;3.90;;
62927;SDS011;51070;52.236;-0.892;2023-07-08T07:54:02;8.70;;;4.50;;
62927;SDS011;51070;52.236;-0.892;2023-07-08T07:56:27;5.10;;;3.90;;
62927;SDS011;51070;52.236;-0.892;2023-07-08T07:58:52;5.70;;;3.90;;
62927;SDS011;51070;52.236;-0.892;2023-07-08T08:01:18;6.50;;;4.10;;
62927;SDS011;51070;52.236;-0.892;2023-07-08T08:03:44;6.20;;;4.00;;
62927;SDS011;51070;52.236;-0.892;2023-07-08T08:06:10;6.80;;;4.40;;
62927;SDS011;51070;52.236;-0.892;2023-07-08T08:08:36;10.40;;;3.90;;
62927;SDS011;51070;52.236;-0.892;2023-07-08T08:11:01;7.10;;;4.00;;
62927;SDS011;51070;52.236;-0.892;2023-07-08T08:13:26;5.80;;;4.10;;
62927;SDS011;51070;52.236;-0.892;2023-07-08T08:15:56;8.10;;;4.40;;
62927;SDS011;51070;52.236;-0.892;2023-07-08T08:18:22;5.40;;;3.80;;
62927;SDS011;51070;52.236;-0.892;2023-07-08T08:20:49;4.90;;;3.50;;
62927;SDS011;51070;52.236;-0.892;2023-07-08T08:23:16;6.60;;;4.50;;
62927;SDS011;51070;52.236;-0.892;2023-07-08T08:25:41;6.50;;;3.50;;
62927;SDS011;51070;52.236;-0.892;2023-07-08T08:28:07;7.40;;;4.50;;
62927;SDS011;51070;52.236;-0.892;2023-07-08T08:30:32;6.00;;;4.10;;
62927;SDS011;51070;52.236;-0.892;2023-07-08T08:32:59;6.00;;;3.90;;
62927;SDS011;51070;52.236;-0.892;2023-07-08T08:35:26;5.40;;;4.10;;
62927;SDS011;51070;52.236;-0.892;2023-07-08T08:37:51;7.40;;;4.20;;
62927;SDS011;51070;52.236;-0.892;2023-07-08T08:40:18;7.20;;;4.10;;
62927;SDS011;51070;52.236;-0.892;2023-07-08T08:43:06;5.80;;;4.30;;
62927;SDS011;51070;52.236;-0.892;2023-07-08T08:45:50;7.60;;;3.80;;
62927;SDS011;51070;52.236;-0.892;2023-07-08T08:48:21;9.00;;;3.90;;
62927;SDS011;51070;52.236;-0.892;2023-07-08T08:50:55;6.50;;;3.80;;
62927;SDS011;51070;52.236;-0.892;2023-07-08T08:53:25;7.20;;;4.00;;
62927;SDS011;51070;52.236;-0.892;2023-07-08T08:55:55;5.50;;;4.10;;
62927;SDS011;51070;52.236;-0.892;2023-07-08T09:00:54;7.50;;;4.90;;
62927;SDS011;51070;52.236;-0.892;2023-07-08T09:06:15;8.60;;;4.70;;
62927;SDS011;51070;52.236;-0.892;2023-07-08T09:08:44;8.30;;;4.10;;
62927;SDS011;51070;52.236;-0.892;2023-07-08T09:13:55;7.40;;;4.00;;
62927;SDS011;51070;52.236;-0.892;2023-07-08T09:19:18;7.50;;;4.60;;
62927;SDS011;51070;52.236;-0.892;2023-07-08T09:21:58;7.10;;;4.30;;
62927;SDS011;51070;52.236;-0.892;2023-07-08T09:24:31;7.30;;;4.40;;
62927;SDS011;51070;52.236;-0.892;2023-07-08T09:27:03;7.90;;;4.50;;
62927;SDS011;51070;52.236;-0.892;2023-07-08T09:29:29;5.80;;;3.40;;
62927;SDS011;51070;52.236;-0.892;2023-07-08T09:31:57;4.60;;;3.70;;
62927;SDS011;51070;52.236;-0.892;2023-07-08T09:34:23;6.60;;;4.30;;
62927;SDS011;51070;52.236;-0.892;2023-07-08T09:37:03;6.00;;;4.00;;
62927;SDS011;51070;52.236;-0.892;2023-07-08T09:39:54;6.80;;;4.00;;
62927;SDS011;51070;52.236;-0.892;2023-07-08T09:42:21;6.20;;;3.50;;
62927;SDS011;51070;52.236;-0.892;2023-07-08T09:44:50;5.20;;;3.70;;
62927;SDS011;51070;52.236;-0.892;2023-07-08T09:47:22;7.70;;;4.40;;
62927;SDS011;51070;52.236;-0.892;2023-07-08T09:49:58;8.20;;;4.50;;
62927;SDS011;51070;52.236;-0.892;2023-07-08T09:52:24;6.20;;;4.50;;
62927;SDS011;51070;52.236;-0.892;2023-07-08T09:54:51;8.40;;;4.60;;
62927;SDS011;51070;52.236;-0.892;2023-07-08T09:57:30;6.50;;;4.20;;
62927;SDS011;51070;52.236;-0.892;2023-07-08T09:59:59;6.10;;;4.00;;
62927;SDS011;51070;52.236;-0.892;2023-07-08T10:02:32;8.10;;;4.50;;
62927;SDS011;51070;52.236;-0.892;2023-07-08T10:05:06;5.30;;;4.00;;
62927;SDS011;51070;52.236;-0.892;2023-07-08T10:07:41;6.30;;;3.90;;
62927;SDS011;51070;52.236;-0.892;2023-07-08T10:10:10;7.20;;;3.90;;
62927;SDS011;51070;52.236;-0.892;2023-07-08T10:12:40;6.70;;;3.90;;
62927;SDS011;51070;52.236;-0.892;2023-07-08T10:15:22;5.10;;;3.90;;
62927;SDS011;51070;52.236;-0.892;2023-07-08T10:17:53;6.60;;;3.90;;
62927;SDS011;51070;52.236;-0.892;2023-07-08T10:20:19;5.30;;;3.90;;
62927;SDS011;51070;52.236;-0.892;2023-07-08T10:22:53;5.70;;;4.10;;
62927;SDS011;51070;52.236;-0.892;2023-07-08T10:25:53;5.00;;;2.90;;
62927;SDS011;51070;52.236;-0.892;2023-07-08T10:31:01;4.80;;;3.00;;
62927;SDS011;51070;52.236;-0.892;2023-07-08T10:50:26;4.80;;;3.10;;
62927;SDS011;51070;52.236;-0.892;2023-07-08T10:58:43;4.30;;;3.00;;
62927;SDS011;51070;52.236;-0.892;2023-07-08T11:06:53;4.50;;;2.80;;
62927;SDS011;51070;52.236;-0.892;2023-07-08T11:09:30;4.60;;;2.50;;
62927;SDS011;51070;52.236;-0.892;2023-07-08T11:12:00;6.00;;;2.50;;
62927;SDS011;51070;52.236;-0.892;2023-07-08T11:14:36;4.90;;;2.40;;
62927;SDS011;51070;52.236;-0.892;2023-07-08T11:17:23;5.10;;;2.70;;
62927;SDS011;51070;52.236;-0.892;2023-07-08T11:20:20;4.90;;;2.40;;
62927;SDS011;51070;52.236;-0.892;2023-07-08T11:25:44;5.80;;;2.90;;
62927;SDS011;51070;52.236;-0.892;2023-07-08T11:28:15;5.70;;;2.50;;
62927;SDS011;51070;52.236;-0.892;2023-07-08T11:30:45;4.80;;;2.50;;
62927;SDS011;51070;52.236;-0.892;2023-07-08T11:33:13;4.30;;;3.00;;
62927;SDS011;51070;52.236;-0.892;2023-07-08T11:38:09;7.70;;;2.80;;
62927;SDS011;51070;52.236;-0.892;2023-07-08T11:40:56;6.30;;;3.30;;
62927;SDS011;51070;52.236;-0.892;2023-07-08T11:43:23;5.60;;;2.90;;
62927;SDS011;51070;52.236;-0.892;2023-07-08T11:45:53;7.10;;;2.80;;
62927;SDS011;51070;52.236;-0.892;2023-07-08T11:48:27;5.60;;;3.00;;
62927;SDS011;51070;52.236;-0.892;2023-07-08T11:50:56;6.30;;;3.20;;
62927;SDS011;51070;52.236;-0.892;2023-07-08T11:55:56;4.60;;;2.40;;
62927;SDS011;51070;52.236;-0.892;2023-07-08T11:58:26;3.50;;;2.50;;
62927;SDS011;51070;52.236;-0.892;2023-07-08T12:00:57;3.80;;;2.40;;
62927;SDS011;51070;52.236;-0.892;2023-07-08T12:03:29;4.60;;;3.00;;
62927;SDS011;51070;52.236;-0.892;2023-07-08T12:05:56;3.90;;;2.60;;
62927;SDS011;51070;52.236;-0.892;2023-07-08T12:08:22;5.10;;;2.80;;
62927;SDS011;51070;52.236;-0.892;2023-07-08T12:10:59;4.90;;;2.70;;
62927;SDS011;51070;52.236;-0.892;2023-07-08T12:13:25;4.60;;;2.80;;
62927;SDS011;51070;52.236;-0.892;2023-07-08T12:15:52;6.80;;;2.60;;
62927;SDS011;51070;52.236;-0.892;2023-07-08T12:18:25;5.80;;;2.90;;
62927;SDS011;51070;52.236;-0.892;2023-07-08T12:21:00;7.30;;;2.70;;
62927;SDS011;51070;52.236;-0.892;2023-07-08T12:23:27;3.60;;;2.50;;
62927;SDS011;51070;52.236;-0.892;2023-07-08T12:25:54;4.50;;;3.00;;
62927;SDS011;51070;52.236;-0.892;2023-07-08T12:28:21;4.80;;;2.40;;
62927;SDS011;51070;52.236;-0.892;2023-07-08T12:30:48;3.80;;;2.60;;
62927;SDS011;51070;52.236;-0.892;2023-07-08T12:33:15;3.90;;;2.90;;
62927;SDS011;51070;52.236;-0.892;2023-07-08T12:35:44;5.10;;;2.90;;
62927;SDS011;51070;52.236;-0.892;2023-07-08T12:40:45;4.30;;;2.70;;
62927;SDS011;51070;52.236;-0.892;2023-07-08T12:43:11;5.90;;;2.60;;
62927;SDS011;51070;52.236;-0.892;2023-07-08T12:45:37;6.10;;;2.70;;
62927;SDS011;51070;52.236;-0.892;2023-07-08T12:48:04;4.50;;;3.00;;
62927;SDS011;51070;52.236;-0.892;2023-07-08T12:50:30;6.10;;;3.20;;
62927;SDS011;51070;52.236;-0.892;2023-07-08T12:52:55;5.40;;;3.10;;
62927;SDS011;51070;52.236;-0.892;2023-07-08T12:55:28;4.30;;;3.10;;
62927;SDS011;51070;52.236;-0.892;2023-07-08T12:57:54;4.20;;;3.00;;
62927;SDS011;51070;52.236;-0.892;2023-07-08T13:00:29;3.80;;;2.70;;
62927;SDS011;51070;52.236;-0.892;2023-07-08T13:03:14;5.30;;;2.80;;
62927;SDS011;51070;52.236;-0.892;2023-07-08T13:05:43;5.50;;;2.90;;
62927;SDS011;51070;52.236;-0.892;2023-07-08T13:08:13;5.80;;;3.10;;
62927;SDS011;51070;52.236;-0.892;2023-07-08T13:10:40;6.40;;;3.50;;
62927;SDS011;51070;52.236;-0.892;2023-07-08T13:13:08;5.70;;;3.50;;
62927;SDS011;51070;52.236;-0.892;2023-07-08T13:15:39;5.90;;;3.10;;
62927;SDS011;51070;52.236;-0.892;2023-07-08T13:20:52;3.80;;;3.00;;
62927;SDS011;51070;52.236;-0.892;2023-07-08T13:23:19;4.10;;;2.90;;
62927;SDS011;51070;52.236;-0.892;2023-07-08T13:25:48;4.30;;;3.30;;
62927;SDS011;51070;52.236;-0.892;2023-07-08T13:28:16;5.60;;;3.50;;
62927;SDS011;51070;52.236;-0.892;2023-07-08T13:30:52;4.60;;;3.10;;
62927;SDS011;51070;52.236;-0.892;2023-07-08T13:33:38;4.40;;;2.90;;
62927;SDS011;51070;52.236;-0.892;2023-07-08T13:36:04;4.70;;;2.60;;
62927;SDS011;51070;52.236;-0.892;2023-07-08T13:38:34;5.10;;;3.10;;
62927;SDS011;51070;52.236;-0.892;2023-07-08T13:41:03;3.70;;;2.90;;
62927;SDS011;51070;52.236;-0.892;2023-07-08T13:43:32;6.40;;;2.70;;
62927;SDS011;51070;52.236;-0.892;2023-07-08T13:45:59;4.30;;;2.70;;
62927;SDS011;51070;52.236;-0.892;2023-07-08T13:51:15;5.30;;;3.20;;
62927;SDS011;51070;52.236;-0.892;2023-07-08T13:53:44;5.80;;;3.20;;
62927;SDS011;51070;52.236;-0.892;2023-07-08T13:56:20;5.10;;;2.70;;
62927;SDS011;51070;52.236;-0.892;2023-07-08T13:58:51;3.90;;;2.40;;
62927;SDS011;51070;52.236;-0.892;2023-07-08T14:01:25;4.20;;;2.60;;
62927;SDS011;51070;52.236;-0.892;2023-07-08T14:03:52;3.50;;;2.70;;
62927;SDS011;51070;52.236;-0.892;2023-07-08T14:06:25;5.60;;;3.30;;
62927;SDS011;51070;52.236;-0.892;2023-07-08T14:08:56;4.80;;;3.20;;
62927;SDS011;51070;52.236;-0.892;2023-07-08T14:11:23;4.40;;;3.10;;
62927;SDS011;51070;52.236;-0.892;2023-07-08T14:13:49;5.50;;;3.00;;
62927;SDS011;51070;52.236;-0.892;2023-07-08T14:16:23;4.20;;;2.60;;
62927;SDS011;51070;52.236;-0.892;2023-07-08T14:18:50;4.30;;;2.70;;
62927;SDS011;51070;52.236;-0.892;2023-07-08T14:21:17;4.80;;;2.80;;
62927;SDS011;51070;52.236;-0.892;2023-07-08T14:23:43;4.30;;;3.10;;
62927;SDS011;51070;52.236;-0.892;2023-07-08T14:26:11;6.80;;;2.60;;
62927;SDS011;51070;52.236;-0.892;2023-07-08T14:28:38;5.90;;;3.10;;
62927;SDS011;51070;52.236;-0.892;2023-07-08T14:31:04;4.70;;;3.60;;
62927;SDS011;51070;52.236;-0.892;2023-07-08T14:33:37;4.50;;;3.30;;
62927;SDS011;51070;52.236;-0.892;2023-07-08T14:36:07;5.60;;;3.40;;
62927;SDS011;51070;52.236;-0.892;2023-07-08T14:38:36;3.90;;;2.80;;
62927;SDS011;51070;52.236;-0.892;2023-07-08T14:41:02;7.20;;;3.50;;
62927;SDS011;51070;52.236;-0.892;2023-07-08T14:43:30;5.80;;;3.20;;
62927;SDS011;51070;52.236;-0.892;2023-07-08T14:45:58;6.80;;;3.40;;
62927;SDS011;51070;52.236;-0.892;2023-07-08T14:48:27;4.70;;;2.90;;
62927;SDS011;51070;52.236;-0.892;2023-07-08T14:50:53;6.90;;;3.30;;
62927;SDS011;51070;52.236;-0.892;2023-07-08T14:53:19;4.60;;;3.00;;
62927;SDS011;51070;52.236;-0.892;2023-07-08T14:55:46;4.80;;;3.40;;
62927;SDS011;51070;52.236;-0.892;2023-07-08T14:58:23;6.80;;;3.40;;
62927;SDS011;51070;52.236;-0.892;2023-07-08T15:00:55;5.40;;;3.20;;
62927;SDS011;51070;52.236;-0.892;2023-07-08T15:03:22;7.30;;;3.30;;
62927;SDS011;51070;52.236;-0.892;2023-07-08T15:05:49;8.20;;;3.90;;
62927;SDS011;51070;52.236;-0.892;2023-07-08T15:08:14;7.10;;;3.40;;
62927;SDS011;51070;52.236;-0.892;2023-07-08T15:10:41;5.40;;;3.30;;
62927;SDS011;51070;52.236;-0.892;2023-07-08T15:13:10;5.80;;;3.90;;
62927;SDS011;51070;52.236;-0.892;2023-07-08T15:15:35;4.00;;;2.50;;
62927;SDS011;51070;52.236;-0.892;2023-07-08T15:18:01;5.20;;;3.50;;
62927;SDS011;51070;52.236;-0.892;2023-07-08T15:20:35;4.50;;;2.90;;
62927;SDS011;51070;52.236;-0.892;2023-07-08T15:23:00;5.60;;;3.70;;
62927;SDS011;51070;52.236;-0.892;2023-07-08T15:25:26;6.40;;;3.10;;
62927;SDS011;51070;52.236;-0.892;2023-07-08T15:27:52;6.40;;;3.80;;
62927;SDS011;51070;52.236;-0.892;2023-07-08T15:32:49;4.70;;;3.00;;
62927;SDS011;51070;52.236;-0.892;2023-07-08T15:35:28;5.50;;;3.60;;
62927;SDS011;51070;52.236;-0.892;2023-07-08T15:37:55;5.00;;;3.20;;
62927;SDS011;51070;52.236;-0.892;2023-07-08T15:40:22;7.40;;;3.70;;
62927;SDS011;51070;52.236;-0.892;2023-07-08T15:42:50;5.70;;;2.80;;